Terminal Aerodrome Forecast
Issued by NWS Chicago, IL

Home | Current Version | Previous Version | Text Only | Print | Product List | Glossary Off
Versions: 1 2 3 4 5 6 7 8 9 10 11 12 13 14 15 16 17 18 19 20 21 22 23 24

895
FTUS43 KLOT 252102 AAA
TAFRFD
TAF AMD
KRFD 252102Z 2521/2618 17012KT P6SM FEW050 BKN250
     FM260100 16006KT P6SM BKN250
     FM261300 19010KT P6SM SCT020 BKN200=

USA.gov is the U.S. government's official web portal to all federal, state and local government web resources and services.